Sidney, MT

6:33 PM MST on March 02, 2015 (GMT -0700)
Sloulin International | Change Station
CLOSE
Current Station
Airport
Location: Williston,
Elevation: 1906 ft
Nearby Weather Stations
Active Advisory: Wind Chill Advisory

Elev 1906 ft 48.17 °N, 103.64 °W | Updated 10 minutes ago

Partly Cloudy
Partly Cloudy
21 °F
Feels Like 5 °F
N
23
Wind Variable Wind from NNW
Gusts 33 mph

Today
High -- | Low -- °F
--% Chance of Precip.
Yesterday
High -- | Low -- °F
Precip. -- in
6:35 AM 5:42 PM
Waxing Gibbous, 94% visible
Pressure 29.84 in
Visibility 10.0 miles
Clouds Mostly Cloudy 1800 ft
Windchill 5 °F
Dew Point 14 °F
Humidity 74%
Rainfall 0.00 in
Snow Depth Not available.
UV 0 out of 12
Pollen .10 out of 12
Air Quality Not available.
Flu Activity Not available.
SPECI KISN 030123Z AUTO 34020G29KT 10SM BKN018 M06/M10 A2984 RMK AO2 PK WND 32032/0105 T10611100

More Conditions Fewer Conditions

Pressure 29.84 in
Visibility 10.0 miles
Clouds Mostly Cloudy 1800 ft
Windchill 5 °F
Dew Point 14 °F
Humidity 74%
Rainfall 0.00 in
Snow Depth Not available.
UV 0 out of 12
Pollen .10 out of 12
Air Quality Not available.
Flu Activity Not available.
SPECI KISN 030123Z AUTO 34020G29KT 10SM BKN018 M06/M10 A2984 RMK AO2 PK WND 32032/0105 T10611100

More Conditions Fewer Conditions

10-Day Weather Forecast

Almanac

Astronomy

Mar. 02, 2015 Rise Set
Actual Time
Civil Twilight
Nautical Twilight
Astronomical Twilight
Moon
Length of Visible Light
Length of Day
Tomorrow will be .
, % of the Moon is Illuminated

Today's Extremes

State Highs State Lows

Community

WunderPhotos

Upload Photos

1,802,021 photos uploaded!

WunderBlogs® & News

Nearby

Air Quality

  Air Quality AQ Index Pollutant
Not available.

Snow Depth

Station Depth Elevation

Earthquake Activity

City Distance Mag. Time & Date
Minimum magnitude displayed is 2.5.

Coastal Water Temperatures

Place Temperature

Nearby Weather Stations

Wind Chill Advisory
Statement as of 2:21 PM MST on March 02, 2015

... Wind Chill Advisory remains in effect from 7 PM this evening
to noon MST Wednesday...

A Wind Chill Advisory remains in effect from 7 PM this evening to
noon MST Wednesday.

* Timing... this evening through Wednesday morning.

* Wind chill values... 20 to 30 below tonight... 25 to 40 below
Tuesday night.

* Snow... up to an inch of new snowfall is expected this evening in
Petroleum County. Gusty winds behind the frontal passage will
cause blowing and drifting snow... leading to reduced visibility.
People traveling should use extra caution.

* Main impacts... frostbite can occur within 30 minutes to
unprotected skin. Pets and Young livestock will be at risk due
to these harsh winter conditions.


Precautionary/preparedness actions...

Try to dress adequately. Be sure to wear layered light weight and
wind proof clothing... and wear a hat and mittens for protection
from the dangers of frostbite.

Pets and Newborn livestock should also be protected from these
conditions.